sensor_id;sensor_type;location;lat;lon;timestamp;temperature;humidity
68990;DHT22;56046;47.270;11.368;2022-10-26T00:02:13;10.00;91.72
68990;DHT22;56046;47.270;11.368;2022-10-26T00:04:39;10.06;91.44
68990;DHT22;56046;47.270;11.368;2022-10-26T00:07:04;10.03;91.17
68990;DHT22;56046;47.270;11.368;2022-10-26T00:09:30;10.05;91.39
68990;DHT22;56046;47.270;11.368;2022-10-26T00:11:55;10.12;91.25
68990;DHT22;56046;47.270;11.368;2022-10-26T00:14:21;10.13;91.40
68990;DHT22;56046;47.270;11.368;2022-10-26T00:16:46;10.12;91.29
68990;DHT22;56046;47.270;11.368;2022-10-26T00:19:12;10.05;90.94
68990;DHT22;56046;47.270;11.368;2022-10-26T00:21:37;10.14;91.14
68990;DHT22;56046;47.270;11.368;2022-10-26T00:24:03;10.23;91.22
68990;DHT22;56046;47.270;11.368;2022-10-26T00:26:28;10.30;90.98
68990;DHT22;56046;47.270;11.368;2022-10-26T00:28:54;10.29;91.12
68990;DHT22;56046;47.270;11.368;2022-10-26T00:31:21;10.29;90.49
68990;DHT22;56046;47.270;11.368;2022-10-26T00:33:51;10.37;90.92
68990;DHT22;56046;47.270;11.368;2022-10-26T00:36:16;10.41;90.97
68990;DHT22;56046;47.270;11.368;2022-10-26T00:38:50;10.47;90.23
68990;DHT22;56046;47.270;11.368;2022-10-26T00:41:28;10.38;89.81
68990;DHT22;56046;47.270;11.368;2022-10-26T00:43:54;10.48;89.96
68990;DHT22;56046;47.270;11.368;2022-10-26T00:46:21;10.40;89.96
68990;DHT22;56046;47.270;11.368;2022-10-26T00:48:51;10.40;89.77
68990;DHT22;56046;47.270;11.368;2022-10-26T00:53:50;10.43;89.71
68990;DHT22;56046;47.270;11.368;2022-10-26T00:56:16;10.47;89.70
68990;DHT22;56046;47.270;11.368;2022-10-26T00:58:42;10.37;89.93
68990;DHT22;56046;47.270;11.368;2022-10-26T01:01:08;10.32;89.80
68990;DHT22;56046;47.270;11.368;2022-10-26T01:03:34;10.45;89.76
68990;DHT22;56046;47.270;11.368;2022-10-26T01:06:02;10.45;89.55
68990;DHT22;56046;47.270;11.368;2022-10-26T01:08:28;10.43;89.89
68990;DHT22;56046;47.270;11.368;2022-10-26T01:10:56;10.50;89.41
68990;DHT22;56046;47.270;11.368;2022-10-26T01:13:23;10.57;89.56
68990;DHT22;56046;47.270;11.368;2022-10-26T01:18:32;10.67;89.19
68990;DHT22;56046;47.270;11.368;2022-10-26T01:26:50;10.68;88.70
68990;DHT22;56046;47.270;11.368;2022-10-26T01:29:39;10.60;88.84
68990;DHT22;56046;47.270;11.368;2022-10-26T01:32:21;10.51;88.84
68990;DHT22;56046;47.270;11.368;2022-10-26T01:34:56;10.61;88.90
68990;DHT22;56046;47.270;11.368;2022-10-26T01:37:30;10.53;88.78
68990;DHT22;56046;47.270;11.368;2022-10-26T01:40:02;10.48;88.81
68990;DHT22;56046;47.270;11.368;2022-10-26T01:42:30;10.54;88.79
68990;DHT22;56046;47.270;11.368;2022-10-26T01:45:00;10.73;88.39
68990;DHT22;56046;47.270;11.368;2022-10-26T01:47:29;10.86;88.15
68990;DHT22;56046;47.270;11.368;2022-10-26T01:49:57;10.91;88.09
68990;DHT22;56046;47.270;11.368;2022-10-26T01:52:24;10.89;88.31
68990;DHT22;56046;47.270;11.368;2022-10-26T01:54:49;10.88;88.45
68990;DHT22;56046;47.270;11.368;2022-10-26T01:57:18;10.85;88.57
68990;DHT22;56046;47.270;11.368;2022-10-26T02:03:00;10.86;88.41
68990;DHT22;56046;47.270;11.368;2022-10-26T02:05:50;10.85;88.27
68990;DHT22;56046;47.270;11.368;2022-10-26T02:11:40;10.53;89.81
68990;DHT22;56046;47.270;11.368;2022-10-26T02:14:17;10.40;89.94
68990;DHT22;56046;47.270;11.368;2022-10-26T02:21:50;10.40;90.14
68990;DHT22;56046;47.270;11.368;2022-10-26T02:24:19;10.67;89.38
68990;DHT22;56046;47.270;11.368;2022-10-26T02:26:47;10.83;88.80
68990;DHT22;56046;47.270;11.368;2022-10-26T02:29:17;10.99;88.29
68990;DHT22;56046;47.270;11.368;2022-10-26T02:31:46;11.09;88.05
68990;DHT22;56046;47.270;11.368;2022-10-26T02:34:15;11.15;88.08
68990;DHT22;56046;47.270;11.368;2022-10-26T02:36:44;11.12;88.28
68990;DHT22;56046;47.270;11.368;2022-10-26T02:39:13;11.05;88.61
68990;DHT22;56046;47.270;11.368;2022-10-26T02:41:42;11.00;88.74
68990;DHT22;56046;47.270;11.368;2022-10-26T02:44:18;10.95;88.97
68990;DHT22;56046;47.270;11.368;2022-10-26T02:46:45;10.88;89.07
68990;DHT22;56046;47.270;11.368;2022-10-26T02:49:11;10.79;89.11
68990;DHT22;56046;47.270;11.368;2022-10-26T02:51:46;10.72;89.12
68990;DHT22;56046;47.270;11.368;2022-10-26T02:56:45;10.68;89.19
68990;DHT22;56046;47.270;11.368;2022-10-26T02:59:12;10.64;89.41
68990;DHT22;56046;47.270;11.368;2022-10-26T03:01:40;10.60;89.64
68990;DHT22;56046;47.270;11.368;2022-10-26T03:04:06;10.55;89.56
68990;DHT22;56046;47.270;11.368;2022-10-26T03:06:31;10.60;89.88
68990;DHT22;56046;47.270;11.368;2022-10-26T03:08:57;10.57;90.07
68990;DHT22;56046;47.270;11.368;2022-10-26T03:11:22;10.60;90.18
68990;DHT22;56046;47.270;11.368;2022-10-26T03:13:47;10.69;90.30
68990;DHT22;56046;47.270;11.368;2022-10-26T03:16:13;10.64;89.92
68990;DHT22;56046;47.270;11.368;2022-10-26T03:18:38;10.69;90.17
68990;DHT22;56046;47.270;11.368;2022-10-26T03:21:04;10.75;89.97
68990;DHT22;56046;47.270;11.368;2022-10-26T03:23:29;10.75;90.07
68990;DHT22;56046;47.270;11.368;2022-10-26T03:25:56;10.69;89.94
68990;DHT22;56046;47.270;11.368;2022-10-26T03:28:22;10.58;90.02
68990;DHT22;56046;47.270;11.368;2022-10-26T03:30:47;10.44;90.65
68990;DHT22;56046;47.270;11.368;2022-10-26T03:33:13;10.41;90.48
68990;DHT22;56046;47.270;11.368;2022-10-26T03:35:38;10.29;90.79
68990;DHT22;56046;47.270;11.368;2022-10-26T03:38:03;10.10;91.66
68990;DHT22;56046;47.270;11.368;2022-10-26T03:40:29;10.30;90.93
68990;DHT22;56046;47.270;11.368;2022-10-26T03:42:54;10.18;91.08
68990;DHT22;56046;47.270;11.368;2022-10-26T03:45:20;10.16;91.41
68990;DHT22;56046;47.270;11.368;2022-10-26T03:47:47;10.24;91.29
68990;DHT22;56046;47.270;11.368;2022-10-26T03:50:15;10.30;91.33
68990;DHT22;56046;47.270;11.368;2022-10-26T03:52:41;10.34;91.35
68990;DHT22;56046;47.270;11.368;2022-10-26T03:55:07;10.17;92.13
68990;DHT22;56046;47.270;11.368;2022-10-26T03:57:33;10.50;91.46
68990;DHT22;56046;47.270;11.368;2022-10-26T03:59:58;10.60;90.65
68990;DHT22;56046;47.270;11.368;2022-10-26T04:02:24;10.62;90.95
68990;DHT22;56046;47.270;11.368;2022-10-26T04:04:49;10.64;90.80
68990;DHT22;56046;47.270;11.368;2022-10-26T04:07:15;10.71;90.48
68990;DHT22;56046;47.270;11.368;2022-10-26T04:09:40;10.60;90.58
68990;DHT22;56046;47.270;11.368;2022-10-26T04:12:06;10.53;90.80
68990;DHT22;56046;47.270;11.368;2022-10-26T04:14:31;10.60;90.51
68990;DHT22;56046;47.270;11.368;2022-10-26T04:16:56;10.75;90.02
68990;DHT22;56046;47.270;11.368;2022-10-26T04:19:22;10.85;89.63
68990;DHT22;56046;47.270;11.368;2022-10-26T04:21:50;10.88;89.39
68990;DHT22;56046;47.270;11.368;2022-10-26T04:24:16;10.82;89.54
68990;DHT22;56046;47.270;11.368;2022-10-26T04:26:41;10.85;89.63
68990;DHT22;56046;47.270;11.368;2022-10-26T04:29:07;10.89;89.28
68990;DHT22;56046;47.270;11.368;2022-10-26T04:31:33;10.89;89.18
68990;DHT22;56046;47.270;11.368;2022-10-26T04:33:58;10.99;88.85
68990;DHT22;56046;47.270;11.368;2022-10-26T04:36:24;11.08;88.72
68990;DHT22;56046;47.270;11.368;2022-10-26T04:38:49;11.08;88.77
68990;DHT22;56046;47.270;11.368;2022-10-26T04:41:15;11.06;89.02
68990;DHT22;56046;47.270;11.368;2022-10-26T04:43:40;10.98;89.16
68990;DHT22;56046;47.270;11.368;2022-10-26T04:46:05;10.95;89.40
68990;DHT22;56046;47.270;11.368;2022-10-26T04:48:31;10.91;89.52
68990;DHT22;56046;47.270;11.368;2022-10-26T04:51:00;10.82;89.59
68990;DHT22;56046;47.270;11.368;2022-10-26T04:53:26;10.89;89.40
68990;DHT22;56046;47.270;11.368;2022-10-26T04:56:01;10.83;89.42
68990;DHT22;56046;47.270;11.368;2022-10-26T04:58:27;10.79;89.55
68990;DHT22;56046;47.270;11.368;2022-10-26T05:00:53;10.81;89.53
68990;DHT22;56046;47.270;11.368;2022-10-26T05:03:18;10.76;89.44
68990;DHT22;56046;47.270;11.368;2022-10-26T05:05:44;10.68;89.50
68990;DHT22;56046;47.270;11.368;2022-10-26T05:08:09;10.54;89.70
68990;DHT22;56046;47.270;11.368;2022-10-26T05:10:35;10.47;90.11
68990;DHT22;56046;47.270;11.368;2022-10-26T05:13:01;10.33;90.69
68990;DHT22;56046;47.270;11.368;2022-10-26T05:15:27;10.24;91.13
68990;DHT22;56046;47.270;11.368;2022-10-26T05:17:56;10.30;91.18
68990;DHT22;56046;47.270;11.368;2022-10-26T05:20:23;10.51;90.14
68990;DHT22;56046;47.270;11.368;2022-10-26T05:22:54;10.62;89.72
68990;DHT22;56046;47.270;11.368;2022-10-26T05:25:20;10.69;89.66
68990;DHT22;56046;47.270;11.368;2022-10-26T05:27:45;10.71;89.73
68990;DHT22;56046;47.270;11.368;2022-10-26T05:30:11;10.71;89.83
68990;DHT22;56046;47.270;11.368;2022-10-26T05:32:36;10.67;89.87
68990;DHT22;56046;47.270;11.368;2022-10-26T05:35:02;10.64;89.95
68990;DHT22;56046;47.270;11.368;2022-10-26T05:37:28;10.58;89.98
68990;DHT22;56046;47.270;11.368;2022-10-26T05:39:54;10.61;90.02
68990;DHT22;56046;47.270;11.368;2022-10-26T05:42:19;10.54;90.34
68990;DHT22;56046;47.270;11.368;2022-10-26T05:44:45;10.53;90.39
68990;DHT22;56046;47.270;11.368;2022-10-26T05:47:10;10.55;90.31
68990;DHT22;56046;47.270;11.368;2022-10-26T05:49:36;10.60;90.19
68990;DHT22;56046;47.270;11.368;2022-10-26T05:52:01;10.51;90.69
68990;DHT22;56046;47.270;11.368;2022-10-26T05:54:27;10.54;90.61
68990;DHT22;56046;47.270;11.368;2022-10-26T05:56:52;10.61;90.43
68990;DHT22;56046;47.270;11.368;2022-10-26T05:59:18;10.68;90.33
68990;DHT22;56046;47.270;11.368;2022-10-26T06:04:37;10.79;89.90
68990;DHT22;56046;47.270;11.368;2022-10-26T06:07:08;10.81;90.11
68990;DHT22;56046;47.270;11.368;2022-10-26T06:09:36;10.91;89.76
68990;DHT22;56046;47.270;11.368;2022-10-26T06:12:01;11.03;89.54
68990;DHT22;56046;47.270;11.368;2022-10-26T06:14:27;11.16;89.37
68990;DHT22;56046;47.270;11.368;2022-10-26T06:28:44;11.38;88.64
68990;DHT22;56046;47.270;11.368;2022-10-26T06:31:12;11.27;88.62
68990;DHT22;56046;47.270;11.368;2022-10-26T06:33:38;11.30;88.65
68990;DHT22;56046;47.270;11.368;2022-10-26T06:38:31;11.30;89.39
68990;DHT22;56046;47.270;11.368;2022-10-26T06:40:58;11.36;88.66
68990;DHT22;56046;47.270;11.368;2022-10-26T06:43:25;11.41;88.38
68990;DHT22;56046;47.270;11.368;2022-10-26T06:45:58;11.53;87.91
68990;DHT22;56046;47.270;11.368;2022-10-26T06:48:50;11.65;86.21
68990;DHT22;56046;47.270;11.368;2022-10-26T06:51:17;11.78;86.49
68990;DHT22;56046;47.270;11.368;2022-10-26T06:53:49;11.85;86.92
68990;DHT22;56046;47.270;11.368;2022-10-26T06:56:16;11.89;87.84
68990;DHT22;56046;47.270;11.368;2022-10-26T06:58:43;11.93;87.96
68990;DHT22;56046;47.270;11.368;2022-10-26T07:01:10;11.92;87.44
68990;DHT22;56046;47.270;11.368;2022-10-26T07:03:37;11.95;87.52
68990;DHT22;56046;47.270;11.368;2022-10-26T07:06:03;11.75;88.39
68990;DHT22;56046;47.270;11.368;2022-10-26T07:08:30;11.77;88.13
68990;DHT22;56046;47.270;11.368;2022-10-26T07:10:56;11.74;87.99
68990;DHT22;56046;47.270;11.368;2022-10-26T07:13:21;11.63;88.38
68990;DHT22;56046;47.270;11.368;2022-10-26T07:15:46;11.58;88.29
68990;DHT22;56046;47.270;11.368;2022-10-26T07:18:12;11.55;88.66
68990;DHT22;56046;47.270;11.368;2022-10-26T07:20:39;11.51;88.90
68990;DHT22;56046;47.270;11.368;2022-10-26T07:23:05;11.54;88.80
68990;DHT22;56046;47.270;11.368;2022-10-26T07:25:32;11.57;87.84
68990;DHT22;56046;47.270;11.368;2022-10-26T07:27:59;11.58;88.47
68990;DHT22;56046;47.270;11.368;2022-10-26T07:30:28;11.61;88.90
68990;DHT22;56046;47.270;11.368;2022-10-26T07:33:02;11.58;88.90
68990;DHT22;56046;47.270;11.368;2022-10-26T07:35:28;11.68;89.43
68990;DHT22;56046;47.270;11.368;2022-10-26T07:37:58;11.85;88.71
68990;DHT22;56046;47.270;11.368;2022-10-26T07:40:23;12.02;88.32
68990;DHT22;56046;47.270;11.368;2022-10-26T07:42:49;12.23;87.74
68990;DHT22;56046;47.270;11.368;2022-10-26T07:45:14;12.34;88.14
68990;DHT22;56046;47.270;11.368;2022-10-26T07:47:40;12.44;88.71
68990;DHT22;56046;47.270;11.368;2022-10-26T07:50:05;12.54;88.90
68990;DHT22;56046;47.270;11.368;2022-10-26T07:52:32;12.63;88.66
68990;DHT22;56046;47.270;11.368;2022-10-26T07:55:00;12.63;87.68
68990;DHT22;56046;47.270;11.368;2022-10-26T07:57:25;12.57;87.26
68990;DHT22;56046;47.270;11.368;2022-10-26T07:59:50;12.44;87.22
68990;DHT22;56046;47.270;11.368;2022-10-26T08:02:16;12.53;87.66
68990;DHT22;56046;47.270;11.368;2022-10-26T08:04:41;12.57;87.63
68990;DHT22;56046;47.270;11.368;2022-10-26T08:07:08;12.60;87.61
68990;DHT22;56046;47.270;11.368;2022-10-26T08:09:33;12.53;87.73
68990;DHT22;56046;47.270;11.368;2022-10-26T08:11:58;12.49;87.05
68990;DHT22;56046;47.270;11.368;2022-10-26T08:14:24;12.51;86.64
68990;DHT22;56046;47.270;11.368;2022-10-26T08:16:49;12.65;86.80
68990;DHT22;56046;47.270;11.368;2022-10-26T08:19:17;12.64;87.23
68990;DHT22;56046;47.270;11.368;2022-10-26T08:21:42;12.68;87.86
68990;DHT22;56046;47.270;11.368;2022-10-26T08:24:08;12.68;88.57
68990;DHT22;56046;47.270;11.368;2022-10-26T08:26:34;12.69;87.61
68990;DHT22;56046;47.270;11.368;2022-10-26T08:28:59;12.74;87.90
68990;DHT22;56046;47.270;11.368;2022-10-26T08:31:25;12.81;87.80
68990;DHT22;56046;47.270;11.368;2022-10-26T08:33:50;12.95;87.44
68990;DHT22;56046;47.270;11.368;2022-10-26T08:36:20;13.06;88.04
68990;DHT22;56046;47.270;11.368;2022-10-26T08:38:47;13.13;87.64
68990;DHT22;56046;47.270;11.368;2022-10-26T08:41:13;13.27;87.12
68990;DHT22;56046;47.270;11.368;2022-10-26T08:43:48;13.38;86.45
68990;DHT22;56046;47.270;11.368;2022-10-26T08:46:23;13.25;86.02
68990;DHT22;56046;47.270;11.368;2022-10-26T08:48:55;13.25;86.66
68990;DHT22;56046;47.270;11.368;2022-10-26T08:51:29;12.96;86.25
68990;DHT22;56046;47.270;11.368;2022-10-26T08:54:13;12.68;87.45
68990;DHT22;56046;47.270;11.368;2022-10-26T08:56:43;12.77;86.86
68990;DHT22;56046;47.270;11.368;2022-10-26T09:01:51;13.04;87.26
68990;DHT22;56046;47.270;11.368;2022-10-26T09:04:18;13.18;86.82
68990;DHT22;56046;47.270;11.368;2022-10-26T09:12:39;13.80;84.70
68990;DHT22;56046;47.270;11.368;2022-10-26T09:27:16;15.40;82.11
68990;DHT22;56046;47.270;11.368;2022-10-26T09:29:16;15.50;82.10
68990;DHT22;56046;47.270;11.368;2022-10-26T09:31:44;15.19;79.08
68990;DHT22;56046;47.270;11.368;2022-10-26T09:34:19;15.25;80.00
68990;DHT22;56046;47.270;11.368;2022-10-26T09:36:51;15.19;80.38
68990;DHT22;56046;47.270;11.368;2022-10-26T09:41:51;15.50;80.32
68990;DHT22;56046;47.270;11.368;2022-10-26T09:44:41;15.76;78.67
68990;DHT22;56046;47.270;11.368;2022-10-26T09:47:22;15.74;78.67
68990;DHT22;56046;47.270;11.368;2022-10-26T09:49:53;16.22;78.05
68990;DHT22;56046;47.270;11.368;2022-10-26T09:52:20;16.69;77.06
68990;DHT22;56046;47.270;11.368;2022-10-26T09:54:46;16.58;76.31
68990;DHT22;56046;47.270;11.368;2022-10-26T09:57:17;16.79;76.32
68990;DHT22;56046;47.270;11.368;2022-10-26T09:59:44;16.91;75.68
68990;DHT22;56046;47.270;11.368;2022-10-26T10:02:37;17.04;74.12
68990;DHT22;56046;47.270;11.368;2022-10-26T10:07:49;17.02;74.43
68990;DHT22;56046;47.270;11.368;2022-10-26T10:10:18;16.72;73.73
68990;DHT22;56046;47.270;11.368;2022-10-26T10:12:45;16.77;74.86
68990;DHT22;56046;47.270;11.368;2022-10-26T10:15:23;16.84;75.97
68990;DHT22;56046;47.270;11.368;2022-10-26T10:17:50;16.86;77.31
68990;DHT22;56046;47.270;11.368;2022-10-26T10:20:28;16.88;77.06
68990;DHT22;56046;47.270;11.368;2022-10-26T10:23:02;16.88;75.78
68990;DHT22;56046;47.270;11.368;2022-10-26T10:25:35;16.97;76.42
68990;DHT22;56046;47.270;11.368;2022-10-26T10:28:07;17.14;77.36
68990;DHT22;56046;47.270;11.368;2022-10-26T10:30:51;17.34;77.36
68990;DHT22;56046;47.270;11.368;2022-10-26T10:33:16;17.48;75.78
68990;DHT22;56046;47.270;11.368;2022-10-26T10:35:50;17.48;74.74
68990;DHT22;56046;47.270;11.368;2022-10-26T10:38:18;17.58;75.28
68990;DHT22;56046;47.270;11.368;2022-10-26T10:40:52;17.66;73.50
68990;DHT22;56046;47.270;11.368;2022-10-26T10:43:19;17.76;73.89
68990;DHT22;56046;47.270;11.368;2022-10-26T10:45:50;17.90;74.49
68990;DHT22;56046;47.270;11.368;2022-10-26T10:48:21;17.80;72.56
68990;DHT22;56046;47.270;11.368;2022-10-26T10:53:35;18.17;72.05
68990;DHT22;56046;47.270;11.368;2022-10-26T11:01:30;18.59;70.00
68990;DHT22;56046;47.270;11.368;2022-10-26T11:06:51;18.68;68.86
68990;DHT22;56046;47.270;11.368;2022-10-26T11:09:20;18.49;69.24
68990;DHT22;56046;47.270;11.368;2022-10-26T11:14:33;17.94;70.05
68990;DHT22;56046;47.270;11.368;2022-10-26T11:19:56;17.24;71.76
68990;DHT22;56046;47.270;11.368;2022-10-26T11:22:28;17.42;72.55
68990;DHT22;56046;47.270;11.368;2022-10-26T11:25:02;17.51;72.59
68990;DHT22;56046;47.270;11.368;2022-10-26T11:27:41;17.58;71.46
68990;DHT22;56046;47.270;11.368;2022-10-26T11:30:29;17.68;71.06
68990;DHT22;56046;47.270;11.368;2022-10-26T11:33:21;17.78;71.47
68990;DHT22;56046;47.270;11.368;2022-10-26T11:38:46;17.78;71.17
68990;DHT22;56046;47.270;11.368;2022-10-26T11:43:46;17.89;70.41
68990;DHT22;56046;47.270;11.368;2022-10-26T11:46:15;18.03;69.34
68990;DHT22;56046;47.270;11.368;2022-10-26T11:54:11;18.13;71.39
68990;DHT22;56046;47.270;11.368;2022-10-26T11:56:46;18.33;71.72
68990;DHT22;56046;47.270;11.368;2022-10-26T11:59:17;18.41;71.27
68990;DHT22;56046;47.270;11.368;2022-10-26T12:01:48;18.56;70.77
68990;DHT22;56046;47.270;11.368;2022-10-26T12:04:17;18.64;70.17
68990;DHT22;56046;47.270;11.368;2022-10-26T12:06:44;18.71;69.63
68990;DHT22;56046;47.270;11.368;2022-10-26T12:09:26;18.75;69.93
68990;DHT22;56046;47.270;11.368;2022-10-26T12:12:06;18.56;69.34
68990;DHT22;56046;47.270;11.368;2022-10-26T12:14:39;18.41;69.84
68990;DHT22;56046;47.270;11.368;2022-10-26T12:19:53;18.82;66.64
68990;DHT22;56046;47.270;11.368;2022-10-26T12:22:22;18.69;66.54
68990;DHT22;56046;47.270;11.368;2022-10-26T12:35:39;18.82;69.83
68990;DHT22;56046;47.270;11.368;2022-10-26T12:46:44;19.38;67.37
68990;DHT22;56046;47.270;11.368;2022-10-26T12:52:21;19.37;66.85
68990;DHT22;56046;47.270;11.368;2022-10-26T12:55:27;19.34;68.10
68990;DHT22;56046;47.270;11.368;2022-10-26T12:58:01;19.31;68.42
68990;DHT22;56046;47.270;11.368;2022-10-26T13:00:28;19.28;69.26
68990;DHT22;56046;47.270;11.368;2022-10-26T13:08:49;18.99;69.92
68990;DHT22;56046;47.270;11.368;2022-10-26T13:11:56;18.93;69.19
68990;DHT22;56046;47.270;11.368;2022-10-26T13:16:58;18.77;71.24
68990;DHT22;56046;47.270;11.368;2022-10-26T13:19:43;18.76;71.54
68990;DHT22;56046;47.270;11.368;2022-10-26T13:22:19;18.68;69.50
68990;DHT22;56046;47.270;11.368;2022-10-26T13:25:00;18.56;69.32
68990;DHT22;56046;47.270;11.368;2022-10-26T13:32:34;18.64;70.04
68990;DHT22;56046;47.270;11.368;2022-10-26T13:35:02;18.76;70.36
68990;DHT22;56046;47.270;11.368;2022-10-26T13:37:31;18.75;69.40
68990;DHT22;56046;47.270;11.368;2022-10-26T13:39:58;18.76;70.11
68990;DHT22;56046;47.270;11.368;2022-10-26T13:42:32;18.76;68.83
68990;DHT22;56046;47.270;11.368;2022-10-26T13:45:06;18.75;69.12
68990;DHT22;56046;47.270;11.368;2022-10-26T13:50:21;18.61;69.84
68990;DHT22;56046;47.270;11.368;2022-10-26T13:52:50;18.52;69.09
68990;DHT22;56046;47.270;11.368;2022-10-26T13:55:31;18.37;69.76
68990;DHT22;56046;47.270;11.368;2022-10-26T14:03:26;18.01;70.49
68990;DHT22;56046;47.270;11.368;2022-10-26T14:05:51;17.75;70.42
68990;DHT22;56046;47.270;11.368;2022-10-26T14:08:18;17.80;70.63
68990;DHT22;56046;47.270;11.368;2022-10-26T14:10:46;17.89;70.38
68990;DHT22;56046;47.270;11.368;2022-10-26T14:13:15;17.63;70.23
68990;DHT22;56046;47.270;11.368;2022-10-26T14:15:45;17.58;70.59
68990;DHT22;56046;47.270;11.368;2022-10-26T14:18:20;17.55;70.16
68990;DHT22;56046;47.270;11.368;2022-10-26T14:23:26;17.32;72.78
68990;DHT22;56046;47.270;11.368;2022-10-26T14:25:52;17.11;74.24
68990;DHT22;56046;47.270;11.368;2022-10-26T14:28:28;17.03;74.20
68990;DHT22;56046;47.270;11.368;2022-10-26T14:30:53;16.97;74.42
68990;DHT22;56046;47.270;11.368;2022-10-26T14:33:34;16.76;75.06
68990;DHT22;56046;47.270;11.368;2022-10-26T14:35:59;16.56;76.20
68990;DHT22;56046;47.270;11.368;2022-10-26T14:38:27;16.45;76.50
68990;DHT22;56046;47.270;11.368;2022-10-26T14:40:55;16.24;77.04
68990;DHT22;56046;47.270;11.368;2022-10-26T14:43:22;16.14;77.36
68990;DHT22;56046;47.270;11.368;2022-10-26T14:45:50;16.20;77.61
68990;DHT22;56046;47.270;11.368;2022-10-26T14:48:27;16.08;78.51
68990;DHT22;56046;47.270;11.368;2022-10-26T14:51:27;16.04;78.45
68990;DHT22;56046;47.270;11.368;2022-10-26T14:53:58;15.80;79.83
68990;DHT22;56046;47.270;11.368;2022-10-26T15:01:49;15.76;80.27
68990;DHT22;56046;47.270;11.368;2022-10-26T15:04:28;15.60;80.95
68990;DHT22;56046;47.270;11.368;2022-10-26T15:09:52;15.60;81.15
68990;DHT22;56046;47.270;11.368;2022-10-26T15:12:34;15.62;81.75
68990;DHT22;56046;47.270;11.368;2022-10-26T15:15:29;15.69;81.06
68990;DHT22;56046;47.270;11.368;2022-10-26T15:17:56;15.77;81.73
68990;DHT22;56046;47.270;11.368;2022-10-26T15:20:27;15.67;82.28
68990;DHT22;56046;47.270;11.368;2022-10-26T15:22:58;15.74;81.50
68990;DHT22;56046;47.270;11.368;2022-10-26T15:25:26;15.65;81.74
68990;DHT22;56046;47.270;11.368;2022-10-26T15:27:53;15.55;83.00
68990;DHT22;56046;47.270;11.368;2022-10-26T15:30:26;15.50;82.64
68990;DHT22;56046;47.270;11.368;2022-10-26T15:32:53;15.52;82.20
68990;DHT22;56046;47.270;11.368;2022-10-26T15:35:24;15.47;83.00
68990;DHT22;56046;47.270;11.368;2022-10-26T15:37:51;15.46;83.07
68990;DHT22;56046;47.270;11.368;2022-10-26T15:40:18;15.40;83.05
68990;DHT22;56046;47.270;11.368;2022-10-26T15:42:47;15.34;83.19
68990;DHT22;56046;47.270;11.368;2022-10-26T15:45:21;15.34;82.93
68990;DHT22;56046;47.270;11.368;2022-10-26T15:47:48;15.39;82.85
68990;DHT22;56046;47.270;11.368;2022-10-26T15:50:16;15.28;82.90
68990;DHT22;56046;47.270;11.368;2022-10-26T15:52:42;15.22;83.82
68990;DHT22;56046;47.270;11.368;2022-10-26T15:55:08;15.09;83.90
68990;DHT22;56046;47.270;11.368;2022-10-26T15:57:34;15.07;84.25
68990;DHT22;56046;47.270;11.368;2022-10-26T16:00:00;15.05;84.09
68990;DHT22;56046;47.270;11.368;2022-10-26T16:02:26;15.00;83.97
68990;DHT22;56046;47.270;11.368;2022-10-26T16:04:51;14.95;84.33
68990;DHT22;56046;47.270;11.368;2022-10-26T16:07:17;14.94;84.07
68990;DHT22;56046;47.270;11.368;2022-10-26T16:09:44;14.87;84.17
68990;DHT22;56046;47.270;11.368;2022-10-26T16:12:10;14.79;84.23
68990;DHT22;56046;47.270;11.368;2022-10-26T16:14:37;14.73;84.81
68990;DHT22;56046;47.270;11.368;2022-10-26T16:17:03;14.60;84.82
68990;DHT22;56046;47.270;11.368;2022-10-26T16:19:29;14.53;85.06
68990;DHT22;56046;47.270;11.368;2022-10-26T16:21:54;14.47;84.85
68990;DHT22;56046;47.270;11.368;2022-10-26T16:24:20;14.45;84.65
68990;DHT22;56046;47.270;11.368;2022-10-26T16:26:45;14.45;84.59
68990;DHT22;56046;47.270;11.368;2022-10-26T16:29:11;14.39;84.91
68990;DHT22;56046;47.270;11.368;2022-10-26T16:31:37;14.29;85.26
68990;DHT22;56046;47.270;11.368;2022-10-26T16:34:03;14.30;85.06
68990;DHT22;56046;47.270;11.368;2022-10-26T16:36:28;14.25;84.78
68990;DHT22;56046;47.270;11.368;2022-10-26T16:38:54;14.21;84.91
68990;DHT22;56046;47.270;11.368;2022-10-26T16:41:19;14.16;84.86
68990;DHT22;56046;47.270;11.368;2022-10-26T16:43:45;14.14;84.95
68990;DHT22;56046;47.270;11.368;2022-10-26T16:46:14;14.18;84.81
68990;DHT22;56046;47.270;11.368;2022-10-26T16:48:42;14.21;84.54
68990;DHT22;56046;47.270;11.368;2022-10-26T16:51:15;14.18;84.67
68990;DHT22;56046;47.270;11.368;2022-10-26T16:53:41;14.14;84.78
68990;DHT22;56046;47.270;11.368;2022-10-26T16:56:12;14.07;85.00
68990;DHT22;56046;47.270;11.368;2022-10-26T16:58:39;14.05;84.83
68990;DHT22;56046;47.270;11.368;2022-10-26T17:01:06;13.91;85.07
68990;DHT22;56046;47.270;11.368;2022-10-26T17:03:32;13.80;85.57
68990;DHT22;56046;47.270;11.368;2022-10-26T17:06:02;13.80;85.45
68990;DHT22;56046;47.270;11.368;2022-10-26T17:08:29;13.63;86.10
68990;DHT22;56046;47.270;11.368;2022-10-26T17:11:04;13.56;86.04
68990;DHT22;56046;47.270;11.368;2022-10-26T17:13:31;13.43;86.29
68990;DHT22;56046;47.270;11.368;2022-10-26T17:16:02;13.29;86.88
68990;DHT22;56046;47.270;11.368;2022-10-26T17:18:28;13.22;87.30
68990;DHT22;56046;47.270;11.368;2022-10-26T17:20:54;13.13;87.07
68990;DHT22;56046;47.270;11.368;2022-10-26T17:23:19;13.12;87.15
68990;DHT22;56046;47.270;11.368;2022-10-26T17:25:46;12.99;87.29
68990;DHT22;56046;47.270;11.368;2022-10-26T17:28:12;13.11;86.89
68990;DHT22;56046;47.270;11.368;2022-10-26T17:30:38;13.04;87.16
68990;DHT22;56046;47.270;11.368;2022-10-26T17:33:05;12.99;87.19
68990;DHT22;56046;47.270;11.368;2022-10-26T17:35:32;12.96;87.35
68990;DHT22;56046;47.270;11.368;2022-10-26T17:37:59;12.94;87.54
68990;DHT22;56046;47.270;11.368;2022-10-26T17:40:25;12.92;87.50
68990;DHT22;56046;47.270;11.368;2022-10-26T17:42:50;12.83;87.70
68990;DHT22;56046;47.270;11.368;2022-10-26T17:45:16;12.87;87.35
68990;DHT22;56046;47.270;11.368;2022-10-26T17:47:43;12.80;87.57
68990;DHT22;56046;47.270;11.368;2022-10-26T17:50:09;12.73;87.73
68990;DHT22;56046;47.270;11.368;2022-10-26T17:52:35;12.84;87.14
68990;DHT22;56046;47.270;11.368;2022-10-26T17:55:01;12.80;87.18
68990;DHT22;56046;47.270;11.368;2022-10-26T17:57:27;12.73;87.71
68990;DHT22;56046;47.270;11.368;2022-10-26T17:59:52;12.73;87.63